Alcains, Portugal
Current Conditions -  °F | °C
As of 3:00 AM on Monday 26 Jan 2015 (Local Time) from LPMR Reporting Station
Moderate Fog Moderate Fog  
Wind Chill:   Ceiling: 300
Heat Index:   Visibility: 0.37mi
Dew Point:   Wind: 1mph
Humidity: 100%   Direction: 150°SSE
Pressure: 30.39"   Gusts: NA
Location:  39.92°N, 7.46°W
Report Text: LPMR 260400Z 15001KT 0600 FG BKN003 02/02 Q1029
Loading
Personal Weather Stations






























Interactive Weather Map New forecast layout! Learn more

10-Day Weather Forecast

Advertisements
Track Severe Weather on mobile